createdAt,value
2017-10-10T00:02:25.126Z,12.43
2017-10-10T00:04:52.577Z,13.03
2017-10-10T00:07:19.899Z,12.63
2017-10-10T00:09:47.233Z,11.50
2017-10-10T00:12:14.532Z,11.43
2017-10-10T00:14:41.861Z,12.23
2017-10-10T00:17:09.186Z,11.70
2017-10-10T00:19:36.496Z,12.77
2017-10-10T00:22:03.820Z,12.67
2017-10-10T00:24:31.132Z,12.70
2017-10-10T00:26:58.509Z,12.10
2017-10-10T00:29:25.823Z,11.87
2017-10-10T00:31:53.157Z,12.27
2017-10-10T00:34:20.478Z,11.43
2017-10-10T00:36:47.944Z,13.60
2017-10-10T00:39:15.248Z,12.17
2017-10-10T00:41:42.608Z,12.30
2017-10-10T00:44:09.940Z,12.67
2017-10-10T00:46:37.272Z,12.70
2017-10-10T00:49:04.601Z,13.00
2017-10-10T00:51:31.922Z,13.30
2017-10-10T00:53:59.232Z,13.60
2017-10-10T00:56:26.551Z,13.90
2017-10-10T00:58:53.853Z,13.70
2017-10-10T01:01:21.175Z,13.97
2017-10-10T01:03:48.481Z,13.97
2017-10-10T01:06:16.228Z,14.93
2017-10-10T01:08:43.535Z,14.03
2017-10-10T01:11:10.836Z,14.13
2017-10-10T01:13:38.490Z,13.83
2017-10-10T01:16:05.847Z,13.93
2017-10-10T01:18:33.169Z,13.70
2017-10-10T01:21:00.481Z,13.97
2017-10-10T01:23:27.824Z,14.53
2017-10-10T01:25:55.155Z,13.50
2017-10-10T01:28:22.476Z,14.10
2017-10-10T01:30:49.775Z,15.57
2017-10-10T01:33:17.144Z,14.60
2017-10-10T01:35:44.489Z,15.20
2017-10-10T01:38:11.813Z,15.70
2017-10-10T01:40:39.130Z,14.77
2017-10-10T01:43:06.428Z,15.17
2017-10-10T01:45:33.772Z,16.23
2017-10-10T01:48:01.076Z,15.60
2017-10-10T01:50:28.408Z,15.93
2017-10-10T01:52:55.707Z,16.77
2017-10-10T01:55:23.052Z,16.17
2017-10-10T01:57:50.369Z,16.80
2017-10-10T02:00:17.706Z,17.23
2017-10-10T02:02:45.062Z,16.37
2017-10-10T02:05:12.374Z,18.07
2017-10-10T02:07:39.675Z,17.50
2017-10-10T02:10:06.997Z,18.13
2017-10-10T02:12:34.307Z,17.27
2017-10-10T02:15:01.636Z,16.47
2017-10-10T02:17:28.947Z,15.90
2017-10-10T02:19:56.262Z,16.37
2017-10-10T02:22:23.604Z,17.03
2017-10-10T02:24:50.908Z,16.47
2017-10-10T02:27:18.244Z,17.27
2017-10-10T02:29:45.565Z,15.90
2017-10-10T02:32:12.896Z,16.93
2017-10-10T02:34:40.234Z,17.20
2017-10-10T02:37:07.549Z,16.33
2017-10-10T02:39:34.861Z,16.03
2017-10-10T02:42:02.180Z,16.97
2017-10-10T02:44:29.497Z,16.40
2017-10-10T02:46:56.816Z,15.93
2017-10-10T02:49:24.146Z,16.40
2017-10-10T02:51:51.464Z,15.70
2017-10-10T02:54:18.780Z,15.83
2017-10-10T02:56:46.089Z,16.00
2017-10-10T02:59:13.428Z,15.63
2017-10-10T03:01:40.740Z,16.80
2017-10-10T03:04:08.067Z,15.00
2017-10-10T03:06:35.398Z,16.20
2017-10-10T03:09:02.715Z,16.27
2017-10-10T03:11:30.060Z,15.73
2017-10-10T03:13:57.394Z,16.10
2017-10-10T03:16:24.697Z,16.57
2017-10-10T03:18:52.016Z,14.80
2017-10-10T03:21:19.337Z,15.40
2017-10-10T03:23:46.665Z,13.63
2017-10-10T03:26:13.980Z,14.70
2017-10-10T03:28:41.283Z,14.17
2017-10-10T03:31:08.616Z,13.60
2017-10-10T03:33:35.936Z,14.33
2017-10-10T03:36:03.282Z,13.83
2017-10-10T03:38:30.617Z,14.00
2017-10-10T03:40:57.944Z,13.90
2017-10-10T03:43:25.248Z,13.10
2017-10-10T03:45:52.575Z,13.13
2017-10-10T03:48:19.889Z,13.53
2017-10-10T03:50:47.207Z,14.27
2017-10-10T03:53:14.517Z,14.00
2017-10-10T03:55:41.840Z,13.70
2017-10-10T03:58:09.143Z,14.47
2017-10-10T04:00:36.469Z,14.47
2017-10-10T04:03:03.789Z,13.67
2017-10-10T04:05:31.099Z,13.67
2017-10-10T04:07:58.427Z,13.13
2017-10-10T04:10:25.728Z,13.50
2017-10-10T04:12:53.080Z,12.83
2017-10-10T04:15:20.398Z,14.13
2017-10-10T04:17:47.720Z,14.30
2017-10-10T04:20:15.038Z,13.40
2017-10-10T04:22:42.355Z,12.37
2017-10-10T04:25:09.665Z,14.67
2017-10-10T04:27:36.980Z,13.40
2017-10-10T04:30:04.289Z,13.97
2017-10-10T04:32:31.695Z,13.67
2017-10-10T04:34:59.007Z,16.00
2017-10-10T04:37:26.354Z,15.43
2017-10-10T04:39:53.732Z,14.10
2017-10-10T04:42:21.034Z,14.83
2017-10-10T04:44:48.381Z,14.20
2017-10-10T04:47:15.713Z,14.00
2017-10-10T04:49:43.953Z,12.40
2017-10-10T04:52:11.256Z,12.33
2017-10-10T04:54:38.576Z,13.80
2017-10-10T04:57:05.912Z,14.13
2017-10-10T04:59:33.246Z,13.37
2017-10-10T05:02:00.552Z,13.27
2017-10-10T05:04:27.878Z,12.77
2017-10-10T05:06:55.193Z,13.33
2017-10-10T05:09:22.538Z,14.50
2017-10-10T05:11:49.855Z,13.83
2017-10-10T05:14:17.154Z,14.70
2017-10-10T05:16:44.472Z,14.00
2017-10-10T05:19:11.777Z,15.07
2017-10-10T05:21:39.131Z,13.97
2017-10-10T05:24:06.469Z,15.40
2017-10-10T05:26:33.792Z,13.73
2017-10-10T05:29:01.142Z,14.57
2017-10-10T05:31:28.449Z,16.00
2017-10-10T05:33:55.759Z,15.23
2017-10-10T05:36:23.072Z,15.13
2017-10-10T05:38:50.376Z,14.60
2017-10-10T05:41:17.744Z,15.23
2017-10-10T05:43:45.048Z,16.73
2017-10-10T05:46:12.726Z,15.30
2017-10-10T05:48:40.094Z,14.40
2017-10-10T05:51:07.441Z,16.17
2017-10-10T05:53:34.769Z,14.20
2017-10-10T05:56:02.915Z,15.20
2017-10-10T05:58:30.227Z,15.87
2017-10-10T06:00:57.531Z,15.00
2017-10-10T06:03:24.864Z,14.30
2017-10-10T06:05:52.169Z,15.50
2017-10-10T06:08:19.488Z,15.10
2017-10-10T06:10:46.796Z,15.20
2017-10-10T06:13:14.119Z,14.20
2017-10-10T06:15:41.454Z,15.10
2017-10-10T06:18:08.776Z,14.90
2017-10-10T06:20:36.076Z,15.10
2017-10-10T06:23:03.399Z,14.53
2017-10-10T06:25:30.712Z,15.13
2017-10-10T06:27:58.031Z,13.67
2017-10-10T06:30:25.385Z,14.40
2017-10-10T06:32:52.752Z,14.10
2017-10-10T06:35:20.112Z,13.40
2017-10-10T06:37:47.463Z,12.47
2017-10-10T06:40:14.788Z,14.60
2017-10-10T06:42:42.112Z,14.40
2017-10-10T06:45:09.668Z,14.87
2017-10-10T06:47:36.998Z,14.70
2017-10-10T06:50:04.341Z,15.97
2017-10-10T06:52:31.670Z,15.70
2017-10-10T06:54:58.996Z,14.80
2017-10-10T06:57:26.312Z,14.47
2017-10-10T06:59:53.639Z,13.50
2017-10-10T07:02:20.962Z,14.20
2017-10-10T07:04:48.422Z,13.40
2017-10-10T07:07:15.744Z,12.70
2017-10-10T07:09:43.062Z,13.43
2017-10-10T07:12:10.388Z,13.30
2017-10-10T07:14:37.691Z,12.53
2017-10-10T07:17:05.018Z,13.00
2017-10-10T07:19:32.352Z,12.90
2017-10-10T07:21:59.730Z,12.10
2017-10-10T07:24:27.028Z,13.83
2017-10-10T07:26:54.388Z,12.90
2017-10-10T07:29:21.721Z,13.20
2017-10-10T07:31:50.032Z,12.27
2017-10-10T07:34:17.356Z,9.53
2017-10-10T07:36:44.677Z,11.40
2017-10-10T07:39:11.997Z,9.97
2017-10-10T07:41:39.310Z,10.90
2017-10-10T07:44:06.648Z,11.13
2017-10-10T07:46:33.949Z,8.93
2017-10-10T07:49:01.301Z,8.97
2017-10-10T07:51:28.655Z,8.87
2017-10-10T07:53:56.038Z,8.50
2017-10-10T07:56:23.337Z,7.37
2017-10-10T07:58:50.669Z,7.20
2017-10-10T08:01:17.968Z,6.60
2017-10-10T08:03:45.300Z,6.80
2017-10-10T08:06:12.600Z,6.07
2017-10-10T08:08:39.922Z,6.30
2017-10-10T08:11:07.221Z,6.10
2017-10-10T08:13:34.564Z,5.40
2017-10-10T08:16:01.865Z,6.20
2017-10-10T08:18:29.156Z,6.20
2017-10-10T08:20:56.490Z,6.40
2017-10-10T08:23:23.793Z,6.40
2017-10-10T08:25:52.065Z,6.97
2017-10-10T08:28:19.382Z,6.80
2017-10-10T08:30:46.712Z,6.70
2017-10-10T08:33:14.018Z,6.40
2017-10-10T08:35:41.528Z,6.03
2017-10-10T08:38:08.862Z,4.93
2017-10-10T08:40:37.087Z,5.63
2017-10-10T08:43:04.421Z,5.10
2017-10-10T08:45:31.745Z,4.40
2017-10-10T08:47:59.058Z,4.50
2017-10-10T08:50:26.368Z,4.87
2017-10-10T08:52:54.049Z,4.87
2017-10-10T08:55:22.320Z,4.80
2017-10-10T08:57:49.624Z,5.50
2017-10-10T09:00:16.937Z,6.23
2017-10-10T09:02:44.260Z,6.00
2017-10-10T09:05:11.556Z,6.70
2017-10-10T09:07:38.876Z,6.50
2017-10-10T09:10:06.200Z,7.70
2017-10-10T09:12:33.532Z,8.43
2017-10-10T09:15:00.832Z,8.47
2017-10-10T09:17:28.428Z,9.00
2017-10-10T09:19:55.741Z,9.30
2017-10-10T09:22:23.059Z,9.10
2017-10-10T09:24:50.400Z,8.97
2017-10-10T09:27:17.717Z,9.50
2017-10-10T09:29:45.052Z,9.33
2017-10-10T09:32:12.375Z,9.73
2017-10-10T09:34:39.718Z,9.97
2017-10-10T09:37:07.031Z,9.53
2017-10-10T09:39:34.347Z,10.00
2017-10-10T09:42:01.661Z,11.87
2017-10-10T09:44:28.991Z,10.80
2017-10-10T09:46:56.305Z,10.00
2017-10-10T09:49:23.629Z,10.67
2017-10-10T09:51:50.932Z,10.60
2017-10-10T09:54:18.260Z,10.80
2017-10-10T09:56:45.573Z,10.87
2017-10-10T09:59:12.902Z,11.90
2017-10-10T10:01:40.247Z,13.13
2017-10-10T10:04:07.565Z,12.53
2017-10-10T10:06:34.890Z,13.47
2017-10-10T10:09:02.210Z,13.90
2017-10-10T10:11:29.537Z,13.50
2017-10-10T10:13:56.840Z,13.80
2017-10-10T10:16:24.174Z,14.33
2017-10-10T10:18:51.497Z,14.20
2017-10-10T10:21:18.825Z,15.03
2017-10-10T10:23:46.169Z,15.20
2017-10-10T10:26:13.497Z,15.67
2017-10-10T10:28:40.804Z,15.80
2017-10-10T10:31:08.134Z,16.47
2017-10-10T10:33:35.439Z,16.67
2017-10-10T10:36:02.778Z,16.30
2017-10-10T10:38:30.092Z,17.40
2017-10-10T10:40:57.448Z,16.67
2017-10-10T10:43:24.761Z,15.33
2017-10-10T10:45:52.112Z,17.00
2017-10-10T10:48:19.461Z,18.27
2017-10-10T10:50:46.769Z,16.93
2017-10-10T10:53:14.129Z,17.93
2017-10-10T10:55:41.457Z,19.53
2017-10-10T10:58:08.788Z,19.67
2017-10-10T11:00:36.095Z,21.53
2017-10-10T11:03:03.425Z,19.57
2017-10-10T11:05:30.729Z,17.93
2017-10-10T11:07:58.049Z,18.10
2017-10-10T11:10:25.365Z,17.53
2017-10-10T11:12:52.696Z,18.20
2017-10-10T11:15:20.007Z,18.40
2017-10-10T11:17:47.329Z,19.43
2017-10-10T11:20:14.646Z,18.57
2017-10-10T11:22:41.953Z,18.50
2017-10-10T11:25:09.333Z,18.77
2017-10-10T11:27:36.656Z,17.80
2017-10-10T11:30:03.976Z,19.20
2017-10-10T11:32:31.289Z,18.53
2017-10-10T11:34:58.617Z,18.27
2017-10-10T11:37:25.924Z,16.50
2017-10-10T11:39:53.249Z,17.93
2017-10-10T11:42:20.557Z,17.10
2017-10-10T11:44:47.885Z,17.33
2017-10-10T11:47:15.196Z,16.63
2017-10-10T11:49:42.524Z,17.57
2017-10-10T11:52:09.830Z,17.40
2017-10-10T11:54:37.200Z,17.77
2017-10-10T11:57:04.581Z,18.10
2017-10-10T11:59:31.893Z,17.60
2017-10-10T12:01:59.229Z,18.50
2017-10-10T12:04:26.541Z,18.90
2017-10-10T12:06:53.881Z,17.63
2017-10-10T12:09:21.231Z,19.13
2017-10-10T12:11:48.563Z,19.00
2017-10-10T12:14:15.887Z,20.00
2017-10-10T12:16:43.538Z,19.90
2017-10-10T12:19:10.850Z,19.50
2017-10-10T12:21:38.182Z,20.77
2017-10-10T12:24:05.492Z,21.00
2017-10-10T12:26:32.819Z,20.73
2017-10-10T12:29:00.173Z,18.50
2017-10-10T12:31:27.480Z,20.60
2017-10-10T12:33:54.822Z,21.60
2017-10-10T12:36:22.128Z,22.53
2017-10-10T12:38:49.730Z,20.67
2017-10-10T12:41:17.877Z,21.37
2017-10-10T12:43:45.421Z,20.10
2017-10-10T12:46:12.861Z,21.23
2017-10-10T12:48:40.388Z,21.23
2017-10-10T12:51:07.826Z,19.30
2017-10-10T12:53:35.310Z,20.53
2017-10-10T12:56:02.696Z,19.30
2017-10-10T12:58:30.065Z,20.00
2017-10-10T13:00:57.427Z,19.93
2017-10-10T13:03:24.757Z,21.83
2017-10-10T13:05:52.070Z,20.97
2017-10-10T13:08:19.389Z,20.30
2017-10-10T13:10:46.696Z,18.80
2017-10-10T13:13:14.017Z,18.40
2017-10-10T13:15:41.348Z,17.03
2017-10-10T13:18:08.672Z,18.07
2017-10-10T13:20:35.993Z,18.80
2017-10-10T13:23:03.620Z,18.17
2017-10-10T13:25:30.958Z,17.00
2017-10-10T13:27:58.262Z,17.53
2017-10-10T13:30:25.596Z,19.53
2017-10-10T13:32:52.919Z,18.63
2017-10-10T13:35:20.232Z,16.33
2017-10-10T13:37:47.549Z,18.80
2017-10-10T13:40:14.883Z,19.10
2017-10-10T13:42:43.121Z,17.90
2017-10-10T13:45:10.594Z,18.63
2017-10-10T13:47:37.957Z,18.47
2017-10-10T13:50:05.285Z,18.33
2017-10-10T13:52:32.650Z,18.63
2017-10-10T13:54:59.977Z,18.63
2017-10-10T13:57:27.354Z,17.30
2017-10-10T13:59:54.990Z,21.77
2017-10-10T14:02:22.316Z,18.70
2017-10-10T14:04:49.625Z,19.80
2017-10-10T14:07:16.950Z,20.83
2017-10-10T14:09:44.258Z,18.90
2017-10-10T14:12:11.741Z,20.60
2017-10-10T14:14:39.197Z,18.90
2017-10-10T14:17:07.647Z,17.63
2017-10-10T14:19:36.739Z,16.43
2017-10-10T14:22:04.202Z,18.50
2017-10-10T14:24:32.453Z,17.97
2017-10-10T14:27:00.724Z,17.00
2017-10-10T14:29:29.215Z,17.53
2017-10-10T14:31:57.451Z,17.40
2017-10-10T14:34:25.598Z,17.60
2017-10-10T14:36:54.085Z,17.80
2017-10-10T14:39:22.394Z,17.40
2017-10-10T14:41:50.573Z,18.13
2017-10-10T14:44:19.501Z,19.80
2017-10-10T14:46:47.678Z,18.60
2017-10-10T14:49:16.807Z,19.63
2017-10-10T14:51:44.916Z,18.47
2017-10-10T14:54:13.067Z,17.47
2017-10-10T14:56:41.190Z,18.40
2017-10-10T14:59:23.346Z,18.40
2017-10-10T15:01:52.232Z,16.87
2017-10-10T15:04:20.841Z,19.87
2017-10-10T15:06:48.890Z,18.07
2017-10-10T15:09:18.017Z,16.80
2017-10-10T15:11:46.345Z,17.07
2017-10-10T15:14:14.509Z,16.90
2017-10-10T15:16:43.920Z,17.37
2017-10-10T15:19:11.297Z,15.63
2017-10-10T15:21:39.723Z,15.80
2017-10-10T15:24:08.206Z,15.80
2017-10-10T15:26:36.805Z,15.87
2017-10-10T15:29:05.044Z,15.67
2017-10-10T15:31:33.054Z,16.03
2017-10-10T15:34:01.341Z,15.67
2017-10-10T15:36:29.608Z,15.17
2017-10-10T15:38:57.876Z,14.37
2017-10-10T15:41:27.309Z,15.47
2017-10-10T15:43:55.578Z,14.67
2017-10-10T15:46:23.891Z,15.90
2017-10-10T15:48:53.154Z,15.80
2017-10-10T15:51:21.225Z,15.00
2017-10-10T15:53:49.386Z,14.37
2017-10-10T15:56:17.280Z,14.63
2017-10-10T15:58:45.724Z,14.63
2017-10-10T16:01:14.062Z,13.80
2017-10-10T16:03:42.234Z,14.63
2017-10-10T16:06:10.470Z,13.50
2017-10-10T16:08:38.867Z,15.97
2017-10-10T16:11:07.073Z,15.43
2017-10-10T16:13:35.399Z,13.90
2017-10-10T16:16:03.357Z,13.63
2017-10-10T16:18:31.338Z,14.37
2017-10-10T16:20:58.693Z,14.97
2017-10-10T16:23:26.022Z,13.70
2017-10-10T16:25:53.349Z,14.60
2017-10-10T16:28:20.665Z,15.10
2017-10-10T16:30:48.037Z,13.60
2017-10-10T16:33:15.352Z,13.40
2017-10-10T16:35:42.684Z,14.30
2017-10-10T16:38:09.989Z,14.13
2017-10-10T16:40:37.321Z,14.40
2017-10-10T16:43:04.634Z,15.10
2017-10-10T16:45:31.962Z,14.73
2017-10-10T16:47:59.276Z,14.00
2017-10-10T16:50:26.625Z,15.07
2017-10-10T16:52:54.313Z,14.40
2017-10-10T16:55:21.929Z,14.87
2017-10-10T16:57:49.433Z,14.47
2017-10-10T17:00:16.784Z,14.20
2017-10-10T17:02:44.103Z,14.73
2017-10-10T17:05:11.411Z,15.67
2017-10-10T17:07:38.742Z,17.00
2017-10-10T17:10:06.044Z,16.07
2017-10-10T17:12:33.368Z,15.83
2017-10-10T17:15:00.679Z,15.60
2017-10-10T17:17:27.997Z,14.90
2017-10-10T17:19:55.322Z,14.97
2017-10-10T17:22:22.642Z,16.30
2017-10-10T17:24:49.961Z,15.70
2017-10-10T17:27:17.296Z,15.40
2017-10-10T17:29:44.613Z,15.27
2017-10-10T17:32:11.990Z,14.50
2017-10-10T17:34:39.329Z,14.00
2017-10-10T17:37:06.645Z,14.50
2017-10-10T17:39:33.983Z,14.37
2017-10-10T17:42:01.277Z,14.43
2017-10-10T17:44:28.616Z,14.60
2017-10-10T17:46:55.928Z,13.30
2017-10-10T17:49:23.263Z,14.10
2017-10-10T17:51:50.568Z,14.60
2017-10-10T17:54:17.897Z,13.40
2017-10-10T17:56:45.209Z,14.53
2017-10-10T17:59:12.534Z,14.07
2017-10-10T18:01:39.883Z,14.30
2017-10-10T18:04:07.201Z,13.60
2017-10-10T18:06:34.525Z,14.47
2017-10-10T18:09:01.861Z,13.70
2017-10-10T18:11:29.234Z,12.80
2017-10-10T18:13:56.557Z,13.93
2017-10-10T18:16:24.037Z,14.70
2017-10-10T18:18:51.357Z,15.00
2017-10-10T18:21:18.684Z,15.50
2017-10-10T18:23:46.001Z,15.10
2017-10-10T18:26:13.326Z,13.90
2017-10-10T18:28:40.649Z,14.70
2017-10-10T18:31:08.006Z,16.60
2017-10-10T18:33:35.344Z,15.10
2017-10-10T18:36:02.735Z,15.90
2017-10-10T18:38:30.107Z,16.73
2017-10-10T18:40:57.461Z,17.30
2017-10-10T18:43:24.810Z,16.17
2017-10-10T18:45:52.176Z,15.43
2017-10-10T18:48:19.567Z,16.97
2017-10-10T18:50:46.881Z,15.30
2017-10-10T18:53:14.207Z,15.80
2017-10-10T18:55:41.513Z,17.17
2017-10-10T18:58:08.904Z,16.17
2017-10-10T19:00:37.501Z,15.93
2017-10-10T19:03:04.881Z,15.47
2017-10-10T19:05:32.237Z,15.97
2017-10-10T19:07:59.946Z,17.40
2017-10-10T19:10:27.303Z,16.27
2017-10-10T19:12:54.640Z,17.27
2017-10-10T19:15:22.109Z,16.77
2017-10-10T19:17:49.601Z,17.00
2017-10-10T19:20:16.953Z,15.77
2017-10-10T19:22:44.317Z,16.73
2017-10-10T19:25:11.693Z,16.63
2017-10-10T19:27:38.997Z,17.80
2017-10-10T19:30:06.409Z,17.00
2017-10-10T19:32:33.745Z,17.30
2017-10-10T19:35:01.107Z,17.27
2017-10-10T19:37:28.436Z,16.57
2017-10-10T19:39:55.927Z,17.60
2017-10-10T19:42:23.240Z,17.57
2017-10-10T19:44:50.585Z,17.50
2017-10-10T19:47:17.930Z,16.33
2017-10-10T19:49:45.257Z,18.90
2017-10-10T19:52:12.561Z,18.13
2017-10-10T19:54:39.925Z,17.40
2017-10-10T19:57:07.269Z,17.50
2017-10-10T19:59:34.599Z,17.50
2017-10-10T20:02:01.953Z,18.73
2017-10-10T20:04:29.400Z,17.37
2017-10-10T20:06:56.736Z,18.20
2017-10-10T20:09:24.081Z,19.13
2017-10-10T20:11:51.404Z,18.03
2017-10-10T20:14:18.703Z,17.47
2017-10-10T20:16:46.148Z,17.90
2017-10-10T20:19:13.453Z,18.83
2017-10-10T20:21:40.781Z,18.20
2017-10-10T20:24:08.088Z,18.80
2017-10-10T20:26:35.544Z,19.30
2017-10-10T20:29:03.181Z,19.07
2017-10-10T20:31:30.512Z,18.53
2017-10-10T20:33:58.777Z,19.17
2017-10-10T20:36:26.115Z,19.20
2017-10-10T20:38:53.460Z,19.87
2017-10-10T20:41:20.756Z,20.27
2017-10-10T20:43:48.080Z,20.80
2017-10-10T20:46:15.392Z,19.70
2017-10-10T20:48:42.713Z,19.43
2017-10-10T20:51:10.033Z,21.13
2017-10-10T20:53:37.357Z,19.07
2017-10-10T20:56:04.664Z,19.73
2017-10-10T20:58:31.983Z,19.60
2017-10-10T21:00:59.609Z,21.43
2017-10-10T21:03:26.957Z,21.90
2017-10-10T21:05:54.281Z,20.10
2017-10-10T21:08:21.620Z,20.87
2017-10-10T21:10:48.920Z,19.90
2017-10-10T21:13:16.262Z,20.23
2017-10-10T21:15:43.564Z,20.60
2017-10-10T21:18:10.901Z,20.20
2017-10-10T21:20:38.206Z,20.10
2017-10-10T21:23:05.533Z,20.80
2017-10-10T21:25:32.860Z,20.70
2017-10-10T21:28:00.168Z,19.60
2017-10-10T21:30:27.493Z,20.20
2017-10-10T21:32:54.801Z,21.10
2017-10-10T21:35:22.135Z,20.20
2017-10-10T21:37:49.737Z,20.17
2017-10-10T21:40:17.052Z,20.07
2017-10-10T21:42:44.375Z,19.47
2017-10-10T21:45:11.692Z,19.20
2017-10-10T21:47:39.005Z,18.87
2017-10-10T21:50:06.330Z,19.77
2017-10-10T21:52:33.639Z,18.37
2017-10-10T21:55:00.973Z,19.90
2017-10-10T21:57:28.288Z,19.03
2017-10-10T21:59:55.597Z,19.10
2017-10-10T22:02:22.947Z,17.70
2017-10-10T22:04:50.241Z,18.53
2017-10-10T22:07:17.563Z,17.30
2017-10-10T22:09:44.873Z,18.47
2017-10-10T22:12:12.206Z,17.80
2017-10-10T22:14:39.511Z,16.87
2017-10-10T22:17:06.850Z,16.60
2017-10-10T22:19:34.165Z,16.83
2017-10-10T22:22:01.501Z,17.70
2017-10-10T22:24:28.851Z,16.90
2017-10-10T22:26:56.156Z,17.33
2017-10-10T22:29:23.465Z,16.97
2017-10-10T22:31:50.788Z,16.00
2017-10-10T22:34:18.126Z,16.43
2017-10-10T22:36:45.461Z,16.80
2017-10-10T22:39:12.766Z,17.40
2017-10-10T22:41:40.125Z,16.20
2017-10-10T22:44:07.433Z,16.17
2017-10-10T22:46:34.765Z,16.67
2017-10-10T22:49:02.069Z,15.50
2017-10-10T22:51:29.390Z,16.13
2017-10-10T22:53:56.884Z,15.10
2017-10-10T22:56:24.262Z,16.13
2017-10-10T22:58:51.617Z,13.90
2017-10-10T23:01:18.940Z,14.60
2017-10-10T23:03:46.281Z,15.37
2017-10-10T23:06:13.602Z,14.97
2017-10-10T23:08:40.920Z,13.60
2017-10-10T23:11:08.240Z,14.40
2017-10-10T23:13:35.569Z,14.13
2017-10-10T23:16:02.881Z,14.13
2017-10-10T23:18:30.215Z,14.10
2017-10-10T23:20:57.512Z,14.17
2017-10-10T23:23:24.844Z,12.97
2017-10-10T23:25:52.152Z,14.20
2017-10-10T23:28:19.820Z,14.37
2017-10-10T23:30:47.156Z,13.77
2017-10-10T23:33:14.569Z,13.87
2017-10-10T23:35:41.956Z,13.97
2017-10-10T23:38:09.274Z,12.87
2017-10-10T23:40:36.613Z,13.23
2017-10-10T23:43:04.057Z,12.67
2017-10-10T23:45:31.418Z,13.90
2017-10-10T23:47:58.725Z,13.17
2017-10-10T23:50:26.071Z,12.73
2017-10-10T23:52:53.368Z,11.70
2017-10-10T23:55:20.728Z,12.90
2017-10-10T23:57:48.356Z,12.53
